Time;durP1;ratioP1;P1;durP2;ratioP2;P2;SDS_P1;SDS_P2;PMS_P1;PMS_P2;Temp;Humidity;BMP_temperature;BMP_pressure;BME280_temperature;BME280_humidity;BME280_pressure;Samples;Min_cycle;Max_cycle;Signal;HPM_P1;HPM_P2
2022/02/14 00:00:12;;;;;;;11.48;6.22;;;3.00;99.90;;;;;;6216085;23;20137;-67
2022/02/14 00:02:38;;;;;;;11.85;6.75;;;3.00;99.90;;;;;;6216360;23;20145;-67
2022/02/14 00:05:04;;;;;;;11.15;6.43;;;3.00;99.90;;;;;;6216083;23;20145;-66
2022/02/14 00:07:31;;;;;;;9.15;6.22;;;3.00;99.90;;;;;;6216515;23;20157;-67
2022/02/14 00:09:57;;;;;;;11.15;6.25;;;3.00;99.90;;;;;;6216563;23;20149;-65
2022/02/14 00:12:22;;;;;;;8.57;5.72;;;3.00;99.90;;;;;;6216565;23;20164;-66
2022/02/14 00:14:48;;;;;;;9.23;5.85;;;3.10;99.90;;;;;;6216066;23;20191;-66
2022/02/14 00:17:14;;;;;;;8.93;6.05;;;3.00;99.90;;;;;;6215076;23;20410;-67
2022/02/14 00:19:39;;;;;;;10.07;6.68;;;3.00;99.90;;;;;;6216267;23;20449;-66
2022/02/14 00:22:05;;;;;;;10.52;6.00;;;3.10;99.90;;;;;;6215850;23;20222;-66
2022/02/14 00:24:30;;;;;;;9.77;6.13;;;3.10;99.90;;;;;;6216175;23;20149;-66
2022/02/14 00:26:56;;;;;;;8.48;6.03;;;3.10;99.90;;;;;;6216503;23;20141;-67
2022/02/14 00:29:22;;;;;;;8.98;5.60;;;3.10;99.90;;;;;;6215934;23;20145;-67
2022/02/14 00:31:48;;;;;;;7.30;6.00;;;3.10;99.90;;;;;;6214560;23;20227;-67
2022/02/14 00:34:14;;;;;;;10.10;6.03;;;3.20;99.90;;;;;;6216182;23;20149;-66
2022/02/14 00:36:40;;;;;;;10.45;6.07;;;3.20;99.90;;;;;;6216114;23;20156;-67
2022/02/14 00:39:05;;;;;;;11.43;7.03;;;3.20;99.90;;;;;;6214768;23;20141;-66
2022/02/14 00:41:31;;;;;;;7.70;5.53;;;3.20;99.90;;;;;;6215965;23;20149;-67
2022/02/14 00:43:57;;;;;;;8.73;5.50;;;3.20;99.90;;;;;;6216119;23;20144;-67
2022/02/14 00:46:22;;;;;;;9.13;5.78;;;3.20;99.90;;;;;;6216132;23;20149;-67
2022/02/14 00:48:48;;;;;;;8.10;5.55;;;3.20;99.90;;;;;;6216050;23;20541;-66
2022/02/14 00:51:14;;;;;;;9.20;5.57;;;3.20;99.90;;;;;;6215814;23;20140;-67
2022/02/14 00:53:39;;;;;;;7.07;5.50;;;3.20;99.90;;;;;;6216029;23;20223;-66
2022/02/14 00:56:05;;;;;;;8.18;5.72;;;3.20;99.90;;;;;;6215866;23;20148;-67
2022/02/14 00:58:30;;;;;;;9.85;5.40;;;3.20;99.90;;;;;;6215441;23;20615;-65
2022/02/14 01:00:56;;;;;;;9.05;6.07;;;3.20;99.90;;;;;;6217515;23;20538;-65
2022/02/14 01:03:21;;;;;;;11.88;5.60;;;3.20;99.90;;;;;;6219219;23;20145;-66
2022/02/14 01:05:47;;;;;;;12.27;5.80;;;3.20;99.90;;;;;;6219322;23;20145;-66
2022/02/14 01:08:12;;;;;;;9.55;5.15;;;3.20;99.90;;;;;;6219648;23;20155;-66
2022/02/14 01:10:38;;;;;;;10.65;5.63;;;3.20;99.90;;;;;;6219488;23;20151;-65
2022/02/14 01:13:03;;;;;;;7.75;5.45;;;3.20;99.90;;;;;;6219399;23;20179;-67
2022/02/14 01:15:29;;;;;;;8.13;5.13;;;3.20;99.90;;;;;;6220192;23;20163;-66
2022/02/14 01:17:55;;;;;;;7.30;5.47;;;3.30;99.90;;;;;;6219854;23;20144;-67
2022/02/14 01:20:20;;;;;;;12.40;6.22;;;3.30;99.90;;;;;;6219391;23;20149;-66
2022/02/14 01:22:46;;;;;;;10.13;5.53;;;3.30;99.90;;;;;;6217929;23;20156;-66
2022/02/14 01:25:13;;;;;;;7.68;5.28;;;3.30;99.90;;;;;;6217913;23;20159;-66
2022/02/14 01:27:38;;;;;;;9.85;5.53;;;3.40;99.90;;;;;;6218397;23;20145;-66
2022/02/14 01:30:05;;;;;;;10.85;5.93;;;3.40;99.90;;;;;;6217934;23;20141;-65
2022/02/14 01:32:31;;;;;;;8.02;5.38;;;3.40;99.90;;;;;;6217417;23;20189;-66
2022/02/14 01:34:56;;;;;;;9.85;5.20;;;3.40;99.90;;;;;;6217496;23;20485;-66
2022/02/14 01:37:22;;;;;;;8.00;5.35;;;3.40;99.90;;;;;;6217417;23;20141;-67
2022/02/14 01:39:48;;;;;;;7.65;5.15;;;3.50;99.90;;;;;;6217998;23;20550;-67
2022/02/14 01:42:14;;;;;;;9.35;5.15;;;3.50;99.90;;;;;;6216183;23;20175;-66
2022/02/14 01:44:44;;;;;;;8.23;5.45;;;3.50;99.90;;;;;;6217432;23;20218;-66
2022/02/14 01:47:17;;;;;;;7.18;5.32;;;3.50;99.90;;;;;;6217692;23;20172;-66
2022/02/14 01:49:44;;;;;;;7.65;5.10;;;3.60;99.90;;;;;;6216151;23;20140;-66
2022/02/14 01:52:11;;;;;;;9.65;5.57;;;3.50;99.90;;;;;;6215949;23;20172;-66
2022/02/14 01:54:41;;;;;;;8.55;5.13;;;3.50;99.90;;;;;;6217376;23;20441;-67
2022/02/14 01:57:08;;;;;;;8.50;4.97;;;3.50;99.90;;;;;;6217337;23;20229;-67
2022/02/14 01:59:34;;;;;;;7.22;5.72;;;3.50;99.90;;;;;;6215825;23;20287;-66
2022/02/14 02:02:01;;;;;;;7.20;4.82;;;3.50;99.90;;;;;;6217128;23;20182;-66
2022/02/14 02:04:27;;;;;;;10.52;5.45;;;3.50;99.90;;;;;;6217351;23;20141;-66
2022/02/14 02:06:53;;;;;;;9.15;5.10;;;3.50;99.90;;;;;;6218146;23;20149;-66
2022/02/14 02:09:18;;;;;;;9.90;5.88;;;3.50;99.90;;;;;;6218037;23;20159;-66
2022/02/14 02:14:28;;;;;;;7.88;5.35;;;3.50;99.90;;;;;;6217527;23;20164;-66
2022/02/14 02:16:54;;;;;;;8.88;5.32;;;3.50;99.90;;;;;;6217331;23;20137;-67
2022/02/14 02:19:20;;;;;;;8.55;5.85;;;3.50;99.90;;;;;;6217440;23;20136;-67
2022/02/14 02:21:49;;;;;;;10.63;6.57;;;3.40;99.90;;;;;;6215994;23;20575;-66
2022/02/14 02:24:19;;;;;;;12.57;6.43;;;3.50;99.90;;;;;;6216980;23;20141;-65
2022/02/14 02:26:46;;;;;;;10.18;5.63;;;3.40;99.90;;;;;;6216258;23;20152;-66
2022/02/14 02:29:14;;;;;;;11.50;5.95;;;3.40;99.90;;;;;;6217407;23;20159;-66
2022/02/14 02:31:41;;;;;;;10.63;5.85;;;3.30;99.90;;;;;;6216733;23;20628;-67
2022/02/14 02:34:06;;;;;;;9.85;6.00;;;3.30;99.90;;;;;;6217257;23;20145;-67
2022/02/14 02:36:32;;;;;;;11.45;5.53;;;3.30;99.90;;;;;;6216798;23;20133;-66
2022/02/14 02:38:57;;;;;;;9.13;6.47;;;3.30;99.90;;;;;;6215789;23;20202;-66
2022/02/14 02:41:23;;;;;;;8.98;5.50;;;3.30;99.90;;;;;;6217173;23;20140;-65
2022/02/14 02:43:48;;;;;;;8.15;5.57;;;3.20;99.90;;;;;;6216806;23;20553;-66
2022/02/14 02:46:14;;;;;;;8.90;6.05;;;3.20;99.90;;;;;;6216642;23;20141;-66
2022/02/14 02:48:39;;;;;;;8.40;5.90;;;3.20;99.90;;;;;;6216751;23;20152;-65
2022/02/14 02:51:05;;;;;;;9.65;6.05;;;3.10;99.90;;;;;;6218177;23;20153;-66
2022/02/14 02:53:32;;;;;;;10.43;6.38;;;3.10;99.90;;;;;;6219687;23;20137;-65
2022/02/14 02:55:58;;;;;;;12.23;6.20;;;3.10;99.90;;;;;;6220938;23;20198;-66
2022/02/14 02:58:24;;;;;;;10.82;6.57;;;3.10;99.90;;;;;;6219801;23;20149;-66
2022/02/14 03:00:49;;;;;;;9.48;6.25;;;3.10;99.90;;;;;;6222635;23;20200;-66
2022/02/14 03:03:15;;;;;;;10.30;6.70;;;3.10;99.90;;;;;;6220272;23;20567;-66
2022/02/14 03:05:40;;;;;;;12.68;6.60;;;3.00;99.90;;;;;;6219315;23;20145;-66
2022/02/14 03:08:06;;;;;;;9.45;6.22;;;3.10;99.90;;;;;;6219817;23;20144;-65
2022/02/14 03:10:31;;;;;;;10.45;6.68;;;3.00;99.90;;;;;;6219472;23;20145;-66
2022/02/14 03:12:57;;;;;;;11.35;6.18;;;3.00;99.90;;;;;;6219323;23;20160;-66
2022/02/14 03:15:22;;;;;;;9.93;5.82;;;3.00;99.90;;;;;;6220067;23;20145;-67
2022/02/14 03:17:48;;;;;;;10.43;5.78;;;3.00;99.90;;;;;;6219300;23;20427;-65
2022/02/14 03:20:14;;;;;;;9.85;6.05;;;3.00;99.90;;;;;;6219299;23;20553;-65
2022/02/14 03:22:40;;;;;;;11.15;6.30;;;3.00;99.90;;;;;;6219219;23;20216;-65
2022/02/14 03:25:06;;;;;;;10.13;6.32;;;3.00;99.90;;;;;;6218965;23;20146;-66
2022/02/14 03:27:32;;;;;;;9.75;6.15;;;3.00;99.90;;;;;;6231901;23;20156;-66
2022/02/14 03:29:58;;;;;;;8.98;6.50;;;3.00;99.90;;;;;;6220503;23;20429;-68
2022/02/14 03:32:23;;;;;;;9.32;5.90;;;3.10;99.90;;;;;;6219218;23;20177;-67
2022/02/14 03:34:49;;;;;;;8.27;6.10;;;3.10;99.90;;;;;;6220652;23;20163;-67
2022/02/14 03:37:14;;;;;;;9.93;5.75;;;3.10;99.90;;;;;;6220828;23;20220;-66
2022/02/14 03:39:40;;;;;;;10.35;6.00;;;3.00;99.90;;;;;;6219672;23;20218;-66
2022/02/14 03:42:06;;;;;;;8.48;6.15;;;3.00;99.90;;;;;;6220354;23;20149;-67
2022/02/14 03:44:32;;;;;;;10.85;6.32;;;3.00;99.90;;;;;;6220044;23;20159;-66
2022/02/14 03:46:58;;;;;;;8.85;6.00;;;3.00;99.90;;;;;;6219936;23;20152;-66
2022/02/14 03:49:23;;;;;;;8.55;5.82;;;3.00;99.90;;;;;;6219605;23;20445;-66
2022/02/14 03:51:49;;;;;;;8.80;5.85;;;3.00;99.90;;;;;;6219100;23;20210;-66
2022/02/14 03:54:14;;;;;;;10.77;5.47;;;3.00;99.90;;;;;;6219280;23;20145;-66
2022/02/14 03:56:40;;;;;;;8.63;5.28;;;3.00;99.90;;;;;;6220283;23;20207;-66
2022/02/14 03:59:05;;;;;;;7.78;5.80;;;3.00;99.90;;;;;;6220849;23;20137;-66
2022/02/14 04:01:31;;;;;;;7.63;5.82;;;3.00;99.90;;;;;;6221424;23;20145;-66
2022/02/14 04:03:56;;;;;;;9.82;5.72;;;3.00;99.90;;;;;;6220167;23;20149;-67
2022/02/14 04:06:22;;;;;;;9.73;5.60;;;3.00;99.90;;;;;;6219303;23;20425;-66
2022/02/14 04:08:48;;;;;;;9.18;5.82;;;3.00;99.90;;;;;;6219148;23;20149;-67
2022/02/14 04:11:14;;;;;;;8.98;6.20;;;2.90;99.90;;;;;;6218556;23;20238;-66
2022/02/14 04:13:39;;;;;;;9.68;5.53;;;3.00;99.90;;;;;;6218249;23;20145;-66
2022/02/14 04:16:05;;;;;;;10.05;5.40;;;2.90;99.90;;;;;;6218502;23;20441;-66
2022/02/14 04:18:30;;;;;;;6.95;5.63;;;2.90;99.90;;;;;;6218218;23;20141;-66
2022/02/14 04:20:56;;;;;;;7.80;5.80;;;2.90;99.90;;;;;;6220992;23;20145;-67
2022/02/14 04:23:21;;;;;;;8.63;5.43;;;2.90;99.90;;;;;;6218298;23;20234;-67
2022/02/14 04:25:47;;;;;;;9.45;5.65;;;2.90;99.90;;;;;;6217977;23;20145;-66
2022/02/14 04:28:13;;;;;;;7.65;5.00;;;2.90;99.90;;;;;;6218403;23;20153;-67
2022/02/14 04:30:38;;;;;;;8.75;5.90;;;2.90;99.90;;;;;;6218693;23;20213;-66
2022/02/14 04:33:05;;;;;;;9.00;5.40;;;2.90;99.90;;;;;;6218628;23;20157;-66
2022/02/14 04:35:32;;;;;;;9.63;6.05;;;2.90;99.90;;;;;;6218201;23;20216;-66
2022/02/14 04:38:01;;;;;;;8.82;5.75;;;2.90;99.90;;;;;;6218654;23;20141;-66
2022/02/14 04:40:33;;;;;;;7.88;5.18;;;2.90;99.90;;;;;;6220324;23;20213;-66
2022/02/14 04:42:59;;;;;;;7.53;5.35;;;2.90;99.90;;;;;;6220734;23;20130;-67
2022/02/14 04:45:25;;;;;;;8.30;5.53;;;2.90;99.90;;;;;;6220540;23;20162;-66
2022/02/14 04:47:51;;;;;;;9.70;5.85;;;2.90;99.90;;;;;;6219109;23;20171;-66
2022/02/14 04:50:17;;;;;;;8.65;5.65;;;2.90;99.90;;;;;;6220081;23;20145;-66
2022/02/14 04:52:42;;;;;;;9.88;5.63;;;2.90;99.90;;;;;;6225226;23;20525;-66
2022/02/14 04:55:08;;;;;;;7.53;5.78;;;2.90;99.90;;;;;;6224098;23;20190;-66
2022/02/14 04:57:35;;;;;;;8.93;5.78;;;2.90;99.90;;;;;;6220379;23;20152;-66
2022/02/14 05:00:00;;;;;;;8.40;5.10;;;2.90;99.90;;;;;;6221644;23;20155;-66
2022/02/14 05:02:26;;;;;;;8.23;5.50;;;2.90;99.90;;;;;;6221840;23;20235;-65
2022/02/14 05:04:51;;;;;;;9.57;5.65;;;3.00;99.90;;;;;;6222329;23;20145;-65
2022/02/14 05:07:17;;;;;;;7.40;5.57;;;3.00;99.90;;;;;;6225353;23;20141;-66
2022/02/14 05:09:42;;;;;;;7.57;5.13;;;3.00;99.90;;;;;;6222703;23;20638;-66
2022/02/14 05:12:08;;;;;;;12.63;5.00;;;3.00;99.90;;;;;;6220996;23;20169;-66
2022/02/14 05:14:34;;;;;;;8.50;5.47;;;3.00;99.90;;;;;;6220855;23;20137;-67
2022/02/14 05:16:59;;;;;;;9.02;5.05;;;3.00;99.90;;;;;;6222790;23;20157;-67
2022/02/14 05:19:25;;;;;;;9.05;5.30;;;3.00;99.90;;;;;;6222706;23;20145;-66
2022/02/14 05:21:50;;;;;;;10.15;5.28;;;3.00;99.90;;;;;;6223577;23;20232;-67
2022/02/14 05:24:16;;;;;;;7.80;5.10;;;3.00;99.90;;;;;;6222695;23;20430;-68
2022/02/14 05:26:42;;;;;;;8.30;5.25;;;3.10;99.90;;;;;;6222197;23;20141;-66
2022/02/14 05:29:07;;;;;;;10.20;5.65;;;3.10;99.90;;;;;;6222400;23;20623;-66
2022/02/14 05:31:33;;;;;;;8.40;5.07;;;3.10;99.90;;;;;;6221361;23;20180;-66
2022/02/14 05:33:58;;;;;;;7.75;4.85;;;3.10;99.90;;;;;;6220634;23;20141;-66
2022/02/14 05:36:24;;;;;;;8.27;5.40;;;3.10;99.90;;;;;;6220942;23;20149;-66
2022/02/14 05:38:49;;;;;;;7.90;4.88;;;3.10;99.90;;;;;;6221243;23;20147;-66
2022/02/14 05:41:15;;;;;;;7.50;5.05;;;3.10;99.90;;;;;;6222804;23;20412;-65
2022/02/14 05:43:41;;;;;;;8.73;5.30;;;3.10;99.90;;;;;;6224045;23;20486;-65
2022/02/14 05:46:13;;;;;;;8.27;4.95;;;3.20;99.90;;;;;;6223732;23;20145;-66
2022/02/14 05:48:40;;;;;;;8.35;5.70;;;3.20;99.90;;;;;;6222494;23;20129;-64
2022/02/14 05:51:05;;;;;;;6.80;4.78;;;3.20;99.90;;;;;;6222448;23;20137;-65
2022/02/14 05:53:31;;;;;;;8.68;5.18;;;3.20;99.90;;;;;;6222474;23;20235;-67
2022/02/14 05:55:56;;;;;;;6.63;4.38;;;3.20;99.90;;;;;;6222834;23;20149;-66
2022/02/14 05:58:22;;;;;;;6.25;4.47;;;3.30;99.90;;;;;;6221760;23;20220;-66
2022/02/14 06:00:47;;;;;;;6.40;4.72;;;3.30;99.90;;;;;;6221511;23;20152;-67
2022/02/14 06:03:13;;;;;;;9.40;4.93;;;3.40;99.90;;;;;;6221202;23;20145;-66
2022/02/14 06:05:38;;;;;;;6.72;4.95;;;3.40;99.90;;;;;;6221651;23;20140;-65
2022/02/14 06:08:04;;;;;;;6.50;4.70;;;3.40;99.90;;;;;;6223855;23;20279;-67
2022/02/14 06:10:30;;;;;;;8.02;4.82;;;3.40;99.90;;;;;;6222067;23;20569;-65
2022/02/14 06:12:55;;;;;;;8.57;4.55;;;3.50;99.90;;;;;;6218912;23;20168;-66
2022/02/14 06:15:21;;;;;;;8.20;4.75;;;3.50;99.90;;;;;;6219545;23;20145;-67
2022/02/14 06:17:46;;;;;;;8.43;4.88;;;3.50;99.90;;;;;;6220358;23;20141;-67
2022/02/14 06:20:15;;;;;;;7.68;4.72;;;3.50;99.90;;;;;;6220569;23;20441;-66
2022/02/14 06:22:40;;;;;;;7.93;4.57;;;3.50;99.90;;;;;;6220878;23;20149;-66
2022/02/14 06:25:06;;;;;;;8.63;4.85;;;3.50;99.90;;;;;;6220602;23;20145;-67
2022/02/14 06:27:32;;;;;;;7.22;4.70;;;3.50;99.90;;;;;;6219283;23;20149;-66
2022/02/14 06:29:57;;;;;;;6.18;4.32;;;3.50;99.90;;;;;;6220161;23;20214;-67
2022/02/14 06:32:23;;;;;;;8.05;4.95;;;3.50;99.90;;;;;;6219692;23;20581;-67
2022/02/14 06:34:48;;;;;;;8.85;4.65;;;3.60;99.90;;;;;;6219377;23;20155;-66
2022/02/14 06:37:14;;;;;;;6.32;4.43;;;3.50;99.90;;;;;;6218834;23;20172;-66
2022/02/14 06:39:39;;;;;;;6.57;4.57;;;3.50;99.90;;;;;;6218882;23;20145;-66
2022/02/14 06:42:05;;;;;;;7.32;4.35;;;3.60;99.90;;;;;;6217440;23;20439;-67
2022/02/14 06:44:30;;;;;;;7.55;4.60;;;3.60;99.90;;;;;;6218249;23;20153;-66
2022/02/14 06:46:56;;;;;;;7.25;4.47;;;3.60;99.90;;;;;;6219023;23;20226;-67
2022/02/14 06:49:21;;;;;;;6.47;4.32;;;3.60;99.90;;;;;;6219941;23;20157;-66
2022/02/14 06:51:47;;;;;;;7.50;4.35;;;3.70;99.90;;;;;;6221028;23;20168;-66
2022/02/14 06:54:13;;;;;;;7.82;4.50;;;3.70;99.90;;;;;;6221074;23;20141;-66
2022/02/14 06:56:38;;;;;;;6.07;4.30;;;3.70;99.90;;;;;;6221234;23;20277;-65
2022/02/14 06:59:03;;;;;;;5.20;4.25;;;3.80;99.90;;;;;;6220053;23;20148;-65
2022/02/14 07:01:29;;;;;;;8.32;4.88;;;3.90;99.90;;;;;;6221364;23;20224;-67
2022/02/14 07:03:54;;;;;;;6.00;4.15;;;3.90;99.90;;;;;;6221049;23;20202;-66
2022/02/14 07:06:20;;;;;;;8.88;4.13;;;3.90;99.90;;;;;;6221127;23;20196;-66
2022/02/14 07:08:46;;;;;;;6.03;4.25;;;4.00;99.90;;;;;;6219716;23;20141;-66
2022/02/14 07:11:11;;;;;;;8.18;4.78;;;4.00;99.90;;;;;;6218824;23;20168;-67
2022/02/14 07:13:37;;;;;;;9.52;4.68;;;4.10;99.90;;;;;;6220022;23;20141;-66
2022/02/14 07:16:02;;;;;;;6.18;4.25;;;4.20;99.90;;;;;;6222139;23;20243;-66
2022/02/14 07:18:30;;;;;;;6.93;4.10;;;4.20;99.90;;;;;;6222375;23;20149;-66
2022/02/14 07:20:55;;;;;;;5.78;4.03;;;4.20;99.90;;;;;;6221604;23;20141;-66
2022/02/14 07:23:21;;;;;;;6.40;4.07;;;4.30;99.90;;;;;;6220719;23;20460;-65
2022/02/14 07:25:46;;;;;;;6.32;4.05;;;4.30;99.90;;;;;;6220380;23;20145;-66
2022/02/14 07:28:12;;;;;;;7.43;4.15;;;4.40;99.90;;;;;;6222623;23;20141;-65
2022/02/14 07:30:37;;;;;;;6.07;3.95;;;4.40;99.90;;;;;;6219160;23;20568;-66
2022/02/14 07:33:03;;;;;;;7.82;4.15;;;4.50;99.90;;;;;;6220606;23;20161;-66
2022/02/14 07:35:28;;;;;;;5.05;3.67;;;4.50;99.90;;;;;;6219937;23;20155;-66
2022/02/14 07:37:54;;;;;;;6.10;4.07;;;4.60;99.90;;;;;;6220810;23;20159;-66
2022/02/14 07:40:19;;;;;;;7.95;3.88;;;4.60;99.90;;;;;;6223233;23;20148;-66
2022/02/14 07:42:45;;;;;;;5.47;3.85;;;4.60;99.90;;;;;;6223663;23;20145;-65
2022/02/14 07:45:11;;;;;;;6.55;4.25;;;4.70;99.90;;;;;;6222925;23;20457;-65
2022/02/14 07:47:37;;;;;;;6.35;4.18;;;4.70;99.90;;;;;;6222293;23;20145;-65
2022/02/14 07:50:06;;;;;;;8.85;4.22;;;4.80;99.90;;;;;;6223789;23;20211;-66
2022/02/14 07:52:31;;;;;;;6.20;4.13;;;4.80;99.90;;;;;;6224052;23;20211;-66
2022/02/14 07:54:57;;;;;;;5.70;4.07;;;4.90;99.90;;;;;;6223569;23;20145;-66
2022/02/14 07:57:23;;;;;;;7.28;4.13;;;4.90;99.90;;;;;;6223260;23;20167;-66
2022/02/14 07:59:49;;;;;;;6.78;3.72;;;5.00;99.90;;;;;;6224299;23;20145;-66
2022/02/14 08:02:14;;;;;;;7.32;3.72;;;5.10;99.90;;;;;;6224887;23;20148;-66
2022/02/14 08:04:43;;;;;;;5.63;3.80;;;5.10;99.90;;;;;;6224039;23;20198;-66
2022/02/14 08:07:08;;;;;;;5.65;3.67;;;5.20;99.90;;;;;;6226346;23;20152;-66
2022/02/14 08:09:34;;;;;;;5.00;3.72;;;5.20;99.90;;;;;;6227111;23;20497;-66
2022/02/14 08:12:00;;;;;;;7.47;3.90;;;5.30;99.90;;;;;;6225613;23;20196;-65
2022/02/14 08:14:25;;;;;;;5.70;4.03;;;5.30;99.90;;;;;;6228292;23;20145;-66
2022/02/14 08:16:51;;;;;;;9.05;4.03;;;5.40;99.90;;;;;;6225880;23;20203;-66
2022/02/14 08:19:16;;;;;;;5.63;3.50;;;5.50;99.90;;;;;;6224588;23;20232;-67
2022/02/14 08:21:42;;;;;;;7.95;4.28;;;5.50;99.90;;;;;;6225084;23;20145;-66
2022/02/14 08:24:08;;;;;;;7.05;3.85;;;5.60;99.90;;;;;;6225829;23;20145;-66
2022/02/14 08:26:34;;;;;;;5.88;3.63;;;5.70;99.90;;;;;;6226804;23;20152;-67
2022/02/14 08:29:01;;;;;;;4.70;3.20;;;5.80;99.90;;;;;;6228143;23;20152;-67
2022/02/14 08:31:28;;;;;;;6.55;3.50;;;5.90;99.90;;;;;;6227105;23;20183;-66
2022/02/14 08:33:54;;;;;;;7.70;3.58;;;6.00;99.90;;;;;;6227721;23;20145;-66
2022/02/14 08:36:20;;;;;;;7.75;3.75;;;6.10;99.90;;;;;;6226897;23;20218;-67
2022/02/14 08:38:45;;;;;;;4.90;3.53;;;6.20;99.90;;;;;;6223732;23;20140;-67
2022/02/14 08:41:11;;;;;;;6.00;3.63;;;6.30;99.90;;;;;;6224444;23;20558;-66
2022/02/14 08:43:36;;;;;;;6.45;4.18;;;6.40;99.90;;;;;;6228108;23;20141;-67
2022/02/14 08:46:02;;;;;;;5.50;3.55;;;6.50;99.90;;;;;;6227192;23;20199;-67
2022/02/14 08:48:27;;;;;;;5.43;3.35;;;6.60;99.90;;;;;;6224885;23;20556;-67
2022/02/14 08:50:53;;;;;;;7.07;3.65;;;6.70;99.90;;;;;;6223116;23;20169;-66
2022/02/14 08:53:21;;;;;;;6.00;3.88;;;6.70;99.90;;;;;;6222514;23;20161;-66
2022/02/14 08:55:47;;;;;;;4.95;3.33;;;6.90;99.90;;;;;;6222377;23;20152;-67
2022/02/14 08:58:12;;;;;;;4.28;3.22;;;6.90;99.90;;;;;;6220143;23;20145;-67
2022/02/14 09:00:38;;;;;;;4.55;3.20;;;7.00;99.90;;;;;;6219054;23;20141;-67
2022/02/14 09:03:03;;;;;;;4.35;3.20;;;7.10;99.90;;;;;;6219190;23;20149;-67
2022/02/14 09:05:29;;;;;;;7.20;3.50;;;7.20;99.90;;;;;;6219416;23;20211;-67
2022/02/14 09:07:54;;;;;;;5.63;3.15;;;7.30;99.90;;;;;;6219525;23;20541;-67
2022/02/14 09:10:21;;;;;;;5.97;3.45;;;7.30;99.90;;;;;;6220637;23;20155;-67
2022/02/14 09:12:47;;;;;;;4.63;3.35;;;7.40;99.90;;;;;;6221245;23;20406;-67
2022/02/14 09:15:13;;;;;;;5.45;3.38;;;7.50;99.90;;;;;;6220142;23;20530;-67
2022/02/14 09:17:39;;;;;;;4.15;3.20;;;7.60;99.90;;;;;;6220860;23;20168;-66
2022/02/14 09:20:05;;;;;;;5.60;2.78;;;7.70;99.90;;;;;;6221741;23;20155;-66
2022/02/14 09:22:30;;;;;;;4.53;3.08;;;7.80;99.90;;;;;;6220687;23;20608;-67
2022/02/14 09:24:57;;;;;;;4.72;3.30;;;7.80;99.90;;;;;;6218285;23;20151;-67
2022/02/14 09:27:22;;;;;;;6.75;3.30;;;7.90;99.90;;;;;;6219009;23;20141;-67
2022/02/14 09:29:48;;;;;;;4.90;3.00;;;8.10;99.90;;;;;;6219116;23;20152;-67
2022/02/14 09:32:14;;;;;;;4.32;2.80;;;8.10;99.90;;;;;;6219881;23;20275;-67
2022/02/14 09:34:39;;;;;;;7.10;3.40;;;8.30;99.90;;;;;;6220414;23;20232;-67
2022/02/14 09:37:05;;;;;;;5.07;3.10;;;8.40;99.90;;;;;;6220487;23;20484;-67
2022/02/14 09:39:30;;;;;;;4.43;2.85;;;8.50;99.90;;;;;;6219889;23;20140;-67
2022/02/14 09:42:00;;;;;;;5.40;3.50;;;8.70;99.90;;;;;;6220382;23;20149;-67
2022/02/14 09:44:26;;;;;;;4.47;2.83;;;8.80;99.90;;;;;;6219245;23;20141;-67
2022/02/14 09:46:51;;;;;;;5.43;3.40;;;8.90;99.90;;;;;;6220023;23;20176;-66
2022/02/14 09:49:17;;;;;;;6.13;3.72;;;9.00;99.90;;;;;;6218915;23;20224;-66
2022/02/14 09:51:43;;;;;;;6.57;3.30;;;9.00;99.90;;;;;;6217719;23;20187;-67
2022/02/14 09:54:08;;;;;;;4.03;3.08;;;9.10;99.90;;;;;;6219497;23;20141;-67
2022/02/14 09:56:36;;;;;;;4.35;3.03;;;9.10;99.90;;;;;;6218826;23;20144;-68
2022/02/14 09:59:05;;;;;;;4.47;2.90;;;9.10;99.90;;;;;;6219826;23;20160;-67
2022/02/14 10:01:31;;;;;;;6.63;3.63;;;9.20;99.90;;;;;;6219647;23;20145;-67
2022/02/14 10:03:58;;;;;;;5.18;3.10;;;9.20;99.90;;;;;;6219444;23;20558;-66
2022/02/14 10:06:40;;;;;;;7.65;3.22;;;9.30;99.90;;;;;;6219836;23;20155;-67
2022/02/14 10:09:12;;;;;;;3.70;3.20;;;9.30;99.90;;;;;;6219564;23;20125;-67
2022/02/14 10:11:42;;;;;;;5.22;3.60;;;9.40;99.90;;;;;;6219493;23;20200;-67
2022/02/14 10:14:17;;;;;;;5.10;2.95;;;9.50;99.90;;;;;;6218531;23;20189;-67
2022/02/14 10:17:02;;;;;;;5.45;2.70;;;9.60;99.90;;;;;;6219645;23;20441;-67
2022/02/14 10:19:29;;;;;;;4.90;3.35;;;9.60;99.90;;;;;;6219458;23;20242;-66
2022/02/14 10:21:55;;;;;;;4.25;3.05;;;9.80;99.90;;;;;;6219267;23;20176;-67
2022/02/14 10:24:21;;;;;;;5.15;3.03;;;9.90;99.90;;;;;;6219997;23;20149;-67
2022/02/14 10:26:49;;;;;;;4.55;3.30;;;10.00;99.90;;;;;;6219924;23;20572;-67
2022/02/14 10:29:15;;;;;;;6.47;2.95;;;10.10;99.90;;;;;;6220106;23;20148;-67
2022/02/14 10:31:43;;;;;;;3.95;2.83;;;10.10;99.90;;;;;;6219914;23;20192;-67
2022/02/14 10:34:08;;;;;;;5.47;3.15;;;10.10;99.90;;;;;;6220108;23;20145;-67
2022/02/14 10:36:36;;;;;;;3.67;2.80;;;10.20;99.90;;;;;;6219595;23;20566;-67
2022/02/14 10:39:11;;;;;;;4.28;2.63;;;10.20;99.90;;;;;;6220004;23;20227;-67
2022/02/14 10:41:38;;;;;;;3.78;2.50;;;10.30;99.90;;;;;;6220245;23;20179;-67
2022/02/14 10:44:11;;;;;;;4.85;2.97;;;10.40;99.90;;;;;;6220658;23;20456;-68
2022/02/14 10:46:36;;;;;;;4.85;3.10;;;10.40;99.90;;;;;;6220409;23;20198;-67
2022/02/14 10:49:03;;;;;;;6.03;2.53;;;10.50;99.90;;;;;;6220301;23;20177;-67
2022/02/14 10:51:29;;;;;;;4.97;3.08;;;10.60;99.90;;;;;;6220591;23;20420;-67
2022/02/14 10:53:56;;;;;;;3.47;2.47;;;10.60;99.90;;;;;;6220825;23;20211;-67
2022/02/14 10:56:22;;;;;;;4.03;2.40;;;10.70;99.90;;;;;;6220614;23;20156;-67
2022/02/14 10:58:49;;;;;;;4.43;2.63;;;10.70;99.90;;;;;;6219860;23;20490;-67
2022/02/14 11:01:16;;;;;;;6.75;3.08;;;10.70;99.90;;;;;;6220065;23;20203;-67
2022/02/14 11:03:43;;;;;;;3.00;2.65;;;10.70;99.90;;;;;;6220384;23;20456;-67
2022/02/14 11:06:10;;;;;;;4.63;2.58;;;10.70;99.90;;;;;;6220407;23;20200;-67
2022/02/14 11:08:36;;;;;;;3.63;2.80;;;10.80;99.90;;;;;;6220437;23;20172;-67
2022/02/14 11:11:04;;;;;;;3.22;2.53;;;10.80;99.90;;;;;;6220502;23;20176;-67
2022/02/14 11:13:30;;;;;;;4.57;2.67;;;10.90;99.90;;;;;;6220379;23;20247;-67
2022/02/14 11:15:58;;;;;;;3.95;3.08;;;10.90;99.90;;;;;;6219368;23;20152;-67
2022/02/14 11:18:33;;;;;;;7.32;2.58;;;10.90;99.90;;;;;;6219545;23;20141;-67
2022/02/14 11:20:59;;;;;;;3.22;2.35;;;11.00;99.90;;;;;;6218986;23;20151;-66
2022/02/14 11:23:27;;;;;;;4.07;2.67;;;11.00;99.90;;;;;;6219227;23;20145;-67
2022/02/14 11:26:07;;;;;;;4.35;2.65;;;11.00;99.90;;;;;;6218949;23;20481;-67
2022/02/14 11:28:54;;;;;;;4.82;2.88;;;11.00;99.90;;;;;;6220286;23;20163;-67
2022/02/14 11:31:21;;;;;;;3.92;2.58;;;11.00;99.90;;;;;;6219258;23;20206;-66
2022/02/14 11:34:04;;;;;;;6.57;2.80;;;10.90;99.90;;;;;;6218488;23;20235;-67
2022/02/14 11:36:35;;;;;;;2.67;2.17;;;10.90;99.90;;;;;;6220302;23;20623;-67
2022/02/14 11:39:06;;;;;;;6.78;2.70;;;11.00;99.90;;;;;;6220169;23;20145;-67
2022/02/14 11:41:33;;;;;;;4.10;2.75;;;11.00;99.90;;;;;;6220595;23;20132;-67
2022/02/14 11:44:11;;;;;;;3.65;2.50;;;11.10;99.90;;;;;;6220140;23;20136;-67
2022/02/14 11:46:42;;;;;;;2.80;2.50;;;11.20;99.90;;;;;;6220458;23;20145;-67
2022/02/14 11:49:08;;;;;;;4.07;2.58;;;11.20;99.90;;;;;;6219123;23;20129;-67
2022/02/14 11:51:42;;;;;;;5.28;2.60;;;11.30;99.90;;;;;;6219553;23;20177;-67
2022/02/14 11:54:28;;;;;;;3.67;2.47;;;11.20;99.90;;;;;;6219132;23;20164;-67
2022/02/14 11:56:55;;;;;;;5.03;2.80;;;11.30;99.90;;;;;;6219181;23;20117;-67
2022/02/14 11:59:27;;;;;;;5.30;3.00;;;11.30;99.90;;;;;;6219643;23;20160;-67
2022/02/14 12:01:53;;;;;;;5.20;2.65;;;11.30;99.90;;;;;;6220335;23;20137;-67
2022/02/14 12:04:37;;;;;;;4.03;2.47;;;11.30;99.90;;;;;;6219995;23;20163;-67
2022/02/14 12:07:17;;;;;;;3.35;2.70;;;11.40;99.90;;;;;;6220838;23;20148;-67
2022/02/14 12:10:01;;;;;;;3.63;2.50;;;11.50;99.90;;;;;;6220509;23;20144;-67
2022/02/14 12:12:58;;;;;;;5.45;2.33;;;11.50;99.90;;;;;;6219619;23;20168;-67
2022/02/14 12:20:58;;;;;;;3.10;2.40;;;11.80;99.90;;;;;;6220906;23;20195;-67
2022/02/14 12:23:30;;;;;;;3.65;2.47;;;11.90;99.90;;;;;;6221097;23;20133;-67
2022/02/14 12:25:56;;;;;;;6.00;2.58;;;12.00;99.90;;;;;;6217129;23;20160;-65
2022/02/14 12:28:23;;;;;;;3.78;2.50;;;12.10;99.90;;;;;;6217520;23;20153;-65
2022/02/14 12:30:49;;;;;;;4.07;2.78;;;12.20;99.90;;;;;;6216283;23;20205;-65
2022/02/14 12:33:17;;;;;;;4.50;2.45;;;12.20;99.90;;;;;;6216631;23;20206;-65
2022/02/14 12:35:58;;;;;;;3.47;2.50;;;12.30;99.90;;;;;;6216374;23;20143;-65
2022/02/14 12:38:31;;;;;;;4.57;2.45;;;12.40;99.90;;;;;;6216777;23;20133;-66
2022/02/14 12:41:17;;;;;;;2.50;2.30;;;12.50;99.90;;;;;;6216498;23;20213;-65
2022/02/14 12:43:45;;;;;;;4.10;2.30;;;12.60;99.90;;;;;;6216430;23;20581;-65
2022/02/14 12:46:17;;;;;;;2.47;2.28;;;12.70;99.90;;;;;;6216291;23;20165;-65
2022/02/14 12:48:45;;;;;;;3.28;2.42;;;12.80;99.90;;;;;;6216610;23;20208;-66
2022/02/14 12:51:23;;;;;;;4.82;2.80;;;12.80;99.90;;;;;;6216509;23;20226;-65
2022/02/14 12:54:03;;;;;;;2.88;2.30;;;12.90;99.90;;;;;;6216796;23;20236;-65
2022/02/14 12:56:33;;;;;;;3.28;2.58;;;13.00;99.90;;;;;;6216665;23;20187;-64
2022/02/14 12:59:07;;;;;;;4.03;2.40;;;13.00;99.90;;;;;;6217745;23;20137;-65